Time;durP1;ratioP1;P1;durP2;ratioP2;P2;SDS_P1;SDS_P2;PMS_P1;PMS_P2;Temp;Humidity;BMP_temperature;BMP_pressure;BME280_temperature;BME280_humidity;BME280_pressure;Samples;Min_cycle;Max_cycle;Signal;HPM_P1;HPM_P2
2021/01/14 00:00:33;;;;;;;10.27;4.55;;;4.40;99.90;;;;;;4959993;28;20192;-81
2021/01/14 00:03:05;;;;;;;13.25;3.83;;;4.50;99.90;;;;;;4936154;29;20187;-82
2021/01/14 00:05:34;;;;;;;12.85;3.53;;;4.50;99.90;;;;;;4959985;28;20180;-82
2021/01/14 00:08:00;;;;;;;4.85;2.10;;;4.40;99.90;;;;;;4971674;28;20661;-82
2021/01/14 00:10:26;;;;;;;13.05;2.30;;;4.40;99.90;;;;;;4965174;28;20176;-82
2021/01/14 00:12:52;;;;;;;5.70;2.35;;;3.80;99.90;;;;;;4935627;28;20703;-82
2021/01/14 00:15:18;;;;;;;3.73;2.40;;;4.10;99.90;;;;;;4970589;28;20184;-82
2021/01/14 00:17:49;;;;;;;4.15;2.60;;;4.30;99.90;;;;;;4933505;29;20531;-82
2021/01/14 00:20:20;;;;;;;5.85;2.88;;;4.10;99.90;;;;;;4949146;29;20184;-81
2021/01/14 00:22:48;;;;;;;4.80;2.35;;;4.00;99.90;;;;;;4954296;29;20671;-81
2021/01/14 00:25:16;;;;;;;3.87;2.20;;;4.10;99.90;;;;;;4956762;28;20176;-81
2021/01/14 00:27:42;;;;;;;6.93;2.97;;;3.60;99.90;;;;;;4963904;28;20814;-82
2021/01/14 00:30:15;;;;;;;4.93;2.25;;;3.90;99.90;;;;;;4947691;28;20302;-82
2021/01/14 00:32:44;;;;;;;3.67;2.10;;;4.00;99.90;;;;;;4955651;29;20640;-82
2021/01/14 00:35:13;;;;;;;2.35;2.15;;;3.90;99.90;;;;;;4955478;29;20594;-82
2021/01/14 00:37:55;;;;;;;8.15;2.85;;;3.80;99.90;;;;;;4950944;28;20180;-81
2021/01/14 00:40:25;;;;;;;7.30;2.90;;;3.60;99.90;;;;;;4936290;29;20782;-81
2021/01/14 00:42:57;;;;;;;6.30;2.70;;;3.60;99.90;;;;;;4941312;29;20633;-81
2021/01/14 00:45:23;;;;;;;5.20;3.00;;;3.90;99.90;;;;;;4955595;29;20235;-81
2021/01/14 00:47:49;;;;;;;8.35;2.65;;;3.80;99.90;;;;;;4953552;29;20207;-81
2021/01/14 00:50:15;;;;;;;7.57;2.75;;;3.90;99.90;;;;;;4939381;29;20258;-81
2021/01/14 00:52:41;;;;;;;6.63;2.45;;;3.70;99.90;;;;;;4949394;29;20235;-81
2021/01/14 00:55:08;;;;;;;6.72;3.05;;;3.70;99.90;;;;;;4937037;29;20279;-82
2021/01/14 00:57:42;;;;;;;4.25;2.40;;;3.90;99.90;;;;;;4941392;28;20187;-81
2021/01/14 01:00:11;;;;;;;4.55;2.92;;;3.90;99.90;;;;;;4971156;28;20242;-82
2021/01/14 01:02:44;;;;;;;12.40;3.55;;;3.90;99.90;;;;;;4940815;29;20227;-82
2021/01/14 01:05:13;;;;;;;6.65;2.90;;;3.90;99.90;;;;;;4936748;29;20674;-82
2021/01/14 01:07:46;;;;;;;7.95;4.47;;;3.80;99.90;;;;;;4949709;29;20200;-81
2021/01/14 01:10:14;;;;;;;5.88;3.30;;;3.90;99.90;;;;;;4930412;29;20181;-82
2021/01/14 01:12:40;;;;;;;9.25;3.20;;;3.90;99.90;;;;;;4936734;29;20181;-82
2021/01/14 01:15:07;;;;;;;13.70;2.90;;;3.50;99.90;;;;;;4953778;29;20180;-82
2021/01/14 01:17:33;;;;;;;7.60;3.45;;;4.00;99.90;;;;;;4955691;28;20463;-82
2021/01/14 01:19:59;;;;;;;10.10;3.42;;;3.80;99.90;;;;;;4939807;28;20716;-82
2021/01/14 01:22:26;;;;;;;10.18;3.22;;;3.90;99.90;;;;;;4923662;29;20196;-82
2021/01/14 01:24:54;;;;;;;6.13;3.10;;;3.80;99.90;;;;;;4953410;28;20353;-82
2021/01/14 01:27:22;;;;;;;6.45;3.55;;;3.80;99.90;;;;;;4941646;28;20250;-82
2021/01/14 01:29:49;;;;;;;7.50;3.05;;;3.80;99.90;;;;;;4953469;29;20220;-81
2021/01/14 01:32:15;;;;;;;5.93;2.90;;;3.60;99.90;;;;;;4936536;29;20197;-81
2021/01/14 01:34:41;;;;;;;6.53;2.93;;;3.80;99.90;;;;;;4931059;29;20431;-81
2021/01/14 01:37:07;;;;;;;9.30;3.60;;;3.80;99.90;;;;;;4954684;29;20514;-82
2021/01/14 01:39:33;;;;;;;6.80;3.37;;;3.80;99.90;;;;;;4937519;28;20519;-82
2021/01/14 01:41:59;;;;;;;4.87;2.90;;;3.80;99.90;;;;;;4952739;28;20452;-81
2021/01/14 01:44:25;;;;;;;5.85;2.97;;;3.40;99.90;;;;;;4940582;28;20444;-82
2021/01/14 01:46:55;;;;;;;11.20;2.90;;;3.60;99.90;;;;;;4919901;29;20641;-81
2021/01/14 01:49:23;;;;;;;6.28;3.05;;;3.70;99.90;;;;;;4949795;29;20479;-81
2021/01/14 01:51:54;;;;;;;5.60;2.63;;;3.20;99.90;;;;;;4950727;28;20189;-81
2021/01/14 01:54:23;;;;;;;8.05;2.95;;;3.50;99.90;;;;;;4935537;29;20197;-81
2021/01/14 01:56:54;;;;;;;7.53;2.60;;;3.60;99.90;;;;;;4953351;28;20242;-81
2021/01/14 01:59:23;;;;;;;4.90;2.83;;;3.30;99.90;;;;;;4938621;29;20212;-81
2021/01/14 02:01:49;;;;;;;8.98;2.80;;;3.00;99.90;;;;;;4954120;29;20254;-81
2021/01/14 02:04:15;;;;;;;9.93;3.33;;;3.50;99.90;;;;;;4938611;29;20180;-81
2021/01/14 02:07:04;;;;;;;4.50;2.83;;;3.00;99.90;;;;;;4953938;28;20431;-81
2021/01/14 02:09:32;;;;;;;5.45;2.95;;;3.50;99.90;;;;;;4954328;29;20770;-81
2021/01/14 02:12:06;;;;;;;8.00;2.85;;;3.40;99.90;;;;;;4938004;28;20176;-81
2021/01/14 02:14:35;;;;;;;5.63;2.75;;;3.40;99.90;;;;;;4935192;29;20196;-81
2021/01/14 02:17:03;;;;;;;4.18;2.42;;;3.40;99.90;;;;;;4954405;29;20180;-81
2021/01/14 02:19:36;;;;;;;6.55;2.50;;;3.30;99.90;;;;;;4953725;29;20188;-80
2021/01/14 02:22:20;;;;;;;4.07;2.38;;;3.20;99.90;;;;;;4950554;29;20203;-80
2021/01/14 02:25:19;;;;;;;4.28;2.20;;;3.40;99.90;;;;;;4957360;29;20188;-80
2021/01/14 02:27:46;;;;;;;4.20;2.35;;;3.30;99.90;;;;;;4967242;28;20764;-81
2021/01/14 02:30:13;;;;;;;10.82;4.05;;;2.90;99.90;;;;;;4951987;29;20212;-80
2021/01/14 02:32:42;;;;;;;2.40;2.20;;;3.30;99.90;;;;;;4958547;28;20565;-81
2021/01/14 02:35:09;;;;;;;5.05;2.20;;;3.20;99.90;;;;;;4950993;29;20197;-80
2021/01/14 02:37:42;;;;;;;7.68;2.63;;;3.40;99.90;;;;;;4939818;29;20207;-80
2021/01/14 02:40:08;;;;;;;11.10;2.80;;;2.70;99.90;;;;;;4938599;29;20353;-81
2021/01/14 02:42:34;;;;;;;4.85;2.70;;;3.10;99.90;;;;;;4951605;29;20216;-80
2021/01/14 02:45:04;;;;;;;7.07;3.13;;;3.10;99.90;;;;;;4938285;29;20612;-81
2021/01/14 02:47:34;;;;;;;7.85;3.70;;;3.20;99.90;;;;;;4944329;29;20209;-81
2021/01/14 02:50:06;;;;;;;7.50;3.83;;;3.10;99.90;;;;;;4941505;29;20226;-80
2021/01/14 02:52:37;;;;;;;9.23;3.70;;;3.20;99.90;;;;;;4952113;29;20200;-81
2021/01/14 02:55:05;;;;;;;6.25;3.42;;;3.10;99.90;;;;;;4938381;29;20279;-80
2021/01/14 02:57:36;;;;;;;13.25;3.72;;;3.30;99.90;;;;;;4945150;29;20188;-81
2021/01/14 03:00:03;;;;;;;4.80;3.30;;;2.90;99.90;;;;;;4954854;28;20503;-81
2021/01/14 03:02:30;;;;;;;9.57;3.42;;;3.10;99.90;;;;;;4977374;28;20183;-81
2021/01/14 03:04:56;;;;;;;8.60;3.77;;;2.70;99.90;;;;;;4975282;28;20210;-80
2021/01/14 03:07:22;;;;;;;10.00;3.70;;;3.10;99.90;;;;;;4922312;29;20515;-81
2021/01/14 03:09:50;;;;;;;3.88;2.88;;;3.00;99.90;;;;;;4953251;29;20814;-81
2021/01/14 03:12:21;;;;;;;3.92;2.70;;;2.80;99.90;;;;;;4957024;29;20263;-81
2021/01/14 03:14:47;;;;;;;6.93;3.33;;;2.90;99.90;;;;;;4943177;28;20332;-81
2021/01/14 03:17:15;;;;;;;4.78;3.00;;;2.90;99.90;;;;;;4941973;29;20854;-81
2021/01/14 03:19:41;;;;;;;4.90;3.00;;;3.20;99.90;;;;;;4958087;28;20195;-81
2021/01/14 03:22:09;;;;;;;14.38;3.53;;;2.80;99.90;;;;;;4954504;29;20546;-81
2021/01/14 03:24:39;;;;;;;7.33;2.80;;;3.40;99.90;;;;;;4937640;29;20286;-81
2021/01/14 03:27:10;;;;;;;5.32;2.60;;;3.30;99.90;;;;;;4941254;29;20482;-81
2021/01/14 03:29:36;;;;;;;5.63;2.22;;;3.40;99.90;;;;;;4967801;28;20294;-81
2021/01/14 03:32:04;;;;;;;7.57;2.38;;;3.50;99.90;;;;;;4952571;28;20540;-81
2021/01/14 03:34:35;;;;;;;4.38;3.45;;;3.40;99.90;;;;;;4956475;28;20184;-81
2021/01/14 03:37:01;;;;;;;4.95;2.45;;;3.10;99.90;;;;;;4940319;29;20217;-81
2021/01/14 03:39:32;;;;;;;15.25;2.75;;;3.10;99.90;;;;;;4947887;29;20679;-81
2021/01/14 03:42:01;;;;;;;5.33;2.80;;;3.30;99.90;;;;;;4954343;28;20195;-81
2021/01/14 03:44:27;;;;;;;4.18;2.95;;;3.30;99.90;;;;;;4957611;28;20475;-81
2021/01/14 03:46:52;;;;;;;10.93;2.77;;;3.30;99.90;;;;;;4940113;29;20564;-81
2021/01/14 03:49:19;;;;;;;4.50;2.80;;;2.80;99.90;;;;;;4956627;28;20463;-81
2021/01/14 03:51:48;;;;;;;5.68;2.10;;;3.20;99.90;;;;;;4971724;28;20446;-80
2021/01/14 03:54:14;;;;;;;3.60;2.35;;;3.30;99.90;;;;;;4940222;29;20238;-80
2021/01/14 03:56:45;;;;;;;7.25;2.65;;;3.20;99.90;;;;;;4941925;28;20196;-80
2021/01/14 03:59:13;;;;;;;9.18;2.80;;;2.90;99.90;;;;;;4959849;28;20316;-81
2021/01/14 04:01:39;;;;;;;3.90;2.00;;;2.90;99.90;;;;;;4936866;29;20195;-81
2021/01/14 04:04:07;;;;;;;15.00;3.30;;;2.80;99.90;;;;;;4944278;29;20263;-81
2021/01/14 04:06:36;;;;;;;4.32;3.08;;;3.40;99.90;;;;;;4955957;29;20882;-81
2021/01/14 04:09:06;;;;;;;4.15;1.70;;;2.90;99.90;;;;;;4917533;29;20208;-81
2021/01/14 04:11:33;;;;;;;3.60;2.83;;;3.30;99.90;;;;;;4921402;29;20324;-81
2021/01/14 04:14:03;;;;;;;7.65;2.50;;;3.20;99.90;;;;;;4927986;29;20225;-81
2021/01/14 04:16:29;;;;;;;6.88;2.70;;;3.10;99.90;;;;;;4956759;28;20183;-81
2021/01/14 04:18:57;;;;;;;4.60;3.03;;;2.80;99.90;;;;;;4953176;28;20517;-80
2021/01/14 04:21:28;;;;;;;5.82;2.50;;;2.70;99.90;;;;;;4937387;29;20424;-81
2021/01/14 04:23:54;;;;;;;6.60;2.70;;;2.50;99.90;;;;;;4950775;29;20191;-81
2021/01/14 04:26:22;;;;;;;7.43;2.87;;;2.60;99.90;;;;;;4955460;29;20295;-81
2021/01/14 04:28:48;;;;;;;10.15;2.70;;;2.50;99.90;;;;;;4947477;28;20620;-80
2021/01/14 04:31:19;;;;;;;3.10;2.30;;;2.90;99.90;;;;;;4936620;29;20785;-80
2021/01/14 04:33:44;;;;;;;3.97;2.22;;;2.50;99.90;;;;;;4948785;29;20495;-80
2021/01/14 04:36:13;;;;;;;7.93;2.70;;;2.40;99.90;;;;;;4949489;28;20200;-80
2021/01/14 04:38:38;;;;;;;3.58;2.35;;;2.80;99.90;;;;;;4937196;29;20433;-80
2021/01/14 04:41:04;;;;;;;7.37;2.23;;;3.00;99.90;;;;;;4955645;28;20625;-81
2021/01/14 04:43:33;;;;;;;7.90;2.20;;;2.40;99.90;;;;;;4956038;28;20430;-81
2021/01/14 04:46:07;;;;;;;7.93;3.00;;;2.90;99.90;;;;;;4928796;29;20428;-81
2021/01/14 04:48:40;;;;;;;4.78;2.80;;;2.60;99.90;;;;;;4936824;29;20208;-81
2021/01/14 04:51:11;;;;;;;4.25;2.10;;;2.60;99.90;;;;;;4940567;29;20189;-81
2021/01/14 04:53:39;;;;;;;3.47;1.83;;;3.00;99.90;;;;;;4936445;29;20198;-80
2021/01/14 04:56:12;;;;;;;6.32;2.90;;;2.80;99.90;;;;;;4952269;29;20617;-81
2021/01/14 04:58:49;;;;;;;5.50;2.75;;;2.70;99.90;;;;;;4971254;28;20218;-81
2021/01/14 05:01:22;;;;;;;7.25;2.60;;;2.40;99.90;;;;;;4958674;28;20184;-81
2021/01/14 05:03:50;;;;;;;3.53;2.83;;;2.70;99.90;;;;;;4949907;28;20204;-81
2021/01/14 05:06:25;;;;;;;8.30;2.90;;;2.80;99.90;;;;;;4936769;29;20226;-81
2021/01/14 05:09:05;;;;;;;3.58;2.17;;;2.80;99.90;;;;;;4941997;29;20259;-81
2021/01/14 05:11:43;;;;;;;12.70;3.60;;;2.80;99.90;;;;;;4955757;28;20187;-80
2021/01/14 05:14:12;;;;;;;5.20;2.40;;;2.20;99.90;;;;;;4948534;28;20192;-82
2021/01/14 05:16:41;;;;;;;3.10;2.58;;;2.70;99.90;;;;;;4935863;29;20183;-81
2021/01/14 05:19:07;;;;;;;5.68;2.45;;;2.30;99.90;;;;;;4925632;29;20567;-81
2021/01/14 05:21:33;;;;;;;12.23;3.10;;;2.70;99.90;;;;;;4939169;29;20195;-81
2021/01/14 05:24:16;;;;;;;8.15;3.00;;;2.70;99.90;;;;;;4943527;28;20792;-81
2021/01/14 05:26:45;;;;;;;7.25;2.40;;;2.60;99.90;;;;;;4939102;28;20294;-81
2021/01/14 05:29:18;;;;;;;8.52;3.25;;;2.30;99.90;;;;;;4953654;28;20207;-80
2021/01/14 05:31:48;;;;;;;5.70;2.65;;;2.80;99.90;;;;;;4952944;29;20180;-81
2021/01/14 05:34:15;;;;;;;5.47;2.08;;;2.30;99.90;;;;;;4946688;29;20180;-81
2021/01/14 05:36:53;;;;;;;7.03;2.15;;;2.30;99.90;;;;;;4951638;28;20180;-81
2021/01/14 05:39:23;;;;;;;3.85;1.95;;;2.50;99.90;;;;;;4936594;29;20216;-81
2021/01/14 05:41:51;;;;;;;3.00;2.00;;;2.20;99.90;;;;;;4936445;28;20184;-81
2021/01/14 05:44:37;;;;;;;5.35;2.05;;;2.10;99.90;;;;;;4936421;29;20185;-81
2021/01/14 05:47:25;;;;;;;3.90;2.10;;;2.60;99.90;;;;;;4940776;29;20305;-80
2021/01/14 05:49:58;;;;;;;28.10;3.95;;;2.20;99.90;;;;;;4955657;28;20195;-80
2021/01/14 05:52:25;;;;;;;3.03;2.38;;;2.10;99.90;;;;;;4947368;28;20563;-81
2021/01/14 05:55:08;;;;;;;8.55;2.60;;;2.60;99.90;;;;;;4920034;29;20200;-81
2021/01/14 05:57:35;;;;;;;3.83;2.25;;;2.60;99.90;;;;;;4924380;29;20271;-81
2021/01/14 06:00:12;;;;;;;8.60;2.42;;;2.50;99.90;;;;;;4946157;28;20180;-81
2021/01/14 06:02:44;;;;;;;10.35;2.63;;;2.70;99.90;;;;;;4958427;28;20226;-81
2021/01/14 06:05:27;;;;;;;5.90;2.40;;;2.20;99.90;;;;;;4950503;29;20208;-81
2021/01/14 06:07:54;;;;;;;6.68;2.15;;;2.70;99.90;;;;;;4939693;29;20199;-81
2021/01/14 06:10:34;;;;;;;7.63;2.63;;;2.40;99.90;;;;;;4946825;29;20223;-81
2021/01/14 06:13:03;;;;;;;7.60;2.20;;;2.50;99.90;;;;;;4958940;28;20204;-81
2021/01/14 06:15:29;;;;;;;5.45;2.50;;;2.70;99.90;;;;;;4948494;29;20181;-81
2021/01/14 06:18:00;;;;;;;3.67;2.13;;;2.20;99.90;;;;;;4944783;29;20206;-81
2021/01/14 06:20:27;;;;;;;11.55;2.25;;;2.20;99.90;;;;;;4958871;28;20476;-81
2021/01/14 06:22:56;;;;;;;5.50;2.13;;;2.50;99.90;;;;;;4937157;29;20193;-81
2021/01/14 06:25:26;;;;;;;6.45;2.13;;;2.00;99.90;;;;;;4939359;29;20184;-80
2021/01/14 06:27:59;;;;;;;6.43;2.38;;;2.60;99.90;;;;;;4951722;29;20246;-81
2021/01/14 06:30:25;;;;;;;8.82;2.72;;;2.50;99.90;;;;;;4960509;28;20243;-80
2021/01/14 06:33:07;;;;;;;11.10;3.00;;;2.60;99.90;;;;;;4982719;28;20234;-80
2021/01/14 06:35:34;;;;;;;4.90;2.30;;;2.10;99.90;;;;;;4959281;28;20482;-80
2021/01/14 06:38:04;;;;;;;49.13;4.45;;;2.30;99.90;;;;;;4972979;28;20191;-81
2021/01/14 06:40:40;;;;;;;4.97;2.00;;;2.10;99.90;;;;;;4975081;28;20211;-80
2021/01/14 06:43:14;;;;;;;7.38;2.63;;;2.50;99.90;;;;;;4949479;28;20247;-80
2021/01/14 06:45:53;;;;;;;6.28;2.58;;;2.10;99.90;;;;;;4963296;28;20194;-80
2021/01/14 06:48:26;;;;;;;4.72;2.50;;;2.20;99.90;;;;;;4961884;28;20203;-81
2021/01/14 06:51:02;;;;;;;5.05;2.50;;;2.30;99.90;;;;;;4984584;28;20184;-80
2021/01/14 06:53:31;;;;;;;7.10;2.50;;;2.80;99.90;;;;;;4962573;28;20191;-80
2021/01/14 06:55:58;;;;;;;6.15;2.45;;;2.10;99.90;;;;;;4968669;28;20278;-80
2021/01/14 06:58:24;;;;;;;6.05;2.55;;;2.70;99.90;;;;;;4972968;28;20226;-81
2021/01/14 07:00:50;;;;;;;3.92;2.42;;;2.50;99.90;;;;;;4982116;28;20187;-81
2021/01/14 07:03:22;;;;;;;5.10;2.80;;;2.50;99.90;;;;;;4969114;28;20237;-80
2021/01/14 07:05:53;;;;;;;4.57;2.78;;;2.50;99.90;;;;;;4976030;28;20294;-81
2021/01/14 07:08:32;;;;;;;5.97;2.97;;;2.60;99.90;;;;;;4965638;28;20313;-84
2021/01/14 07:11:07;;;;;;;9.07;3.03;;;2.00;99.90;;;;;;4970662;28;20513;-84
2021/01/14 07:13:43;;;;;;;7.78;2.50;;;2.10;99.90;;;;;;4967658;28;20187;-84
2021/01/14 07:16:13;;;;;;;5.35;2.30;;;2.60;99.90;;;;;;4958160;28;20204;-81
2021/01/14 07:18:45;;;;;;;5.05;2.30;;;2.40;99.90;;;;;;4957879;28;20206;-81
2021/01/14 07:21:11;;;;;;;5.00;2.50;;;2.50;99.90;;;;;;4975719;28;20282;-81
2021/01/14 07:23:56;;;;;;;6.97;3.23;;;2.40;99.90;;;;;;4988615;28;20278;-84
2021/01/14 07:26:23;;;;;;;5.32;2.90;;;2.40;99.90;;;;;;4975292;28;20494;-83
2021/01/14 07:28:51;;;;;;;5.28;2.90;;;2.40;99.90;;;;;;4966697;28;20230;-81
2021/01/14 07:31:24;;;;;;;6.22;3.03;;;2.40;99.90;;;;;;4971697;28;20183;-86
2021/01/14 07:33:50;;;;;;;5.93;3.38;;;2.40;99.90;;;;;;4953694;28;20545;-86
2021/01/14 07:36:21;;;;;;;10.65;3.53;;;2.20;99.90;;;;;;4975408;28;20198;-84
2021/01/14 07:38:55;;;;;;;8.00;3.45;;;2.70;99.90;;;;;;4973428;28;20617;-83
2021/01/14 07:41:22;;;;;;;4.78;2.55;;;2.60;99.90;;;;;;4975831;28;20191;-85
2021/01/14 07:43:53;;;;;;;6.88;3.55;;;2.00;99.90;;;;;;4967567;28;20271;-86
2021/01/14 07:46:23;;;;;;;6.35;2.72;;;2.00;99.90;;;;;;4974650;28;20231;-84
2021/01/14 07:48:54;;;;;;;5.10;2.67;;;2.00;99.90;;;;;;4977897;28;20254;-89
2021/01/14 07:51:21;;;;;;;7.80;3.58;;;1.90;99.90;;;;;;4972296;28;20295;-86
2021/01/14 07:54:06;;;;;;;6.57;2.47;;;2.60;99.90;;;;;;4967787;28;20188;-85
2021/01/14 07:56:54;;;;;;;4.55;2.75;;;2.60;99.90;;;;;;4977887;28;20191;-83
2021/01/14 07:59:27;;;;;;;5.05;3.10;;;2.50;99.90;;;;;;4956059;28;20287;-84
2021/01/14 08:02:07;;;;;;;4.57;2.42;;;2.70;99.90;;;;;;4971478;28;20201;-83
2021/01/14 08:04:47;;;;;;;3.28;1.98;;;2.50;99.90;;;;;;4962017;28;20225;-83
2021/01/14 08:07:24;;;;;;;12.80;3.13;;;2.40;99.90;;;;;;4979357;28;20199;-83
2021/01/14 08:09:52;;;;;;;5.82;3.05;;;2.70;99.90;;;;;;4960398;28;20222;-81
2021/01/14 08:12:22;;;;;;;8.18;2.67;;;2.20;99.90;;;;;;4964426;28;20192;-81
2021/01/14 08:14:50;;;;;;;5.53;2.60;;;2.50;99.90;;;;;;4972214;28;20191;-81
2021/01/14 08:17:21;;;;;;;7.85;2.80;;;2.50;99.90;;;;;;4956284;28;20196;-81
2021/01/14 08:19:50;;;;;;;4.68;2.15;;;2.70;99.90;;;;;;4959783;28;20202;-81
2021/01/14 08:22:19;;;;;;;9.10;2.83;;;2.50;99.90;;;;;;4960019;28;20727;-81
2021/01/14 08:25:02;;;;;;;8.48;2.47;;;2.60;99.90;;;;;;4974145;28;20207;-81
2021/01/14 08:27:31;;;;;;;10.50;3.38;;;2.70;99.90;;;;;;4970528;28;20296;-85
2021/01/14 08:30:20;;;;;;;6.65;3.15;;;2.60;99.90;;;;;;4962996;28;20242;-84
2021/01/14 08:32:49;;;;;;;5.07;3.00;;;2.90;99.90;;;;;;4970453;28;20523;-85
2021/01/14 08:35:15;;;;;;;8.02;3.50;;;2.70;99.90;;;;;;4970715;28;20274;-84
2021/01/14 08:37:50;;;;;;;5.10;3.50;;;2.50;99.90;;;;;;4967339;28;20655;-85
2021/01/14 08:40:22;;;;;;;4.80;2.80;;;3.10;99.90;;;;;;4969552;28;20442;-85
2021/01/14 08:43:07;;;;;;;10.00;3.20;;;2.60;99.90;;;;;;4960989;28;20270;-85
2021/01/14 08:45:42;;;;;;;9.70;3.42;;;3.00;99.90;;;;;;4957058;28;20628;-84
2021/01/14 08:48:12;;;;;;;4.25;3.05;;;3.10;99.90;;;;;;4984876;28;20635;-84
2021/01/14 08:50:55;;;;;;;9.20;3.85;;;3.20;99.90;;;;;;4965908;28;20561;-83
2021/01/14 08:53:21;;;;;;;9.63;3.35;;;3.10;99.90;;;;;;4949657;28;20188;-82
2021/01/14 08:56:06;;;;;;;10.50;3.33;;;2.80;99.90;;;;;;4979101;28;20286;-84
2021/01/14 08:58:37;;;;;;;6.45;2.60;;;3.20;99.90;;;;;;4956648;28;20187;-84
2021/01/14 09:01:08;;;;;;;6.80;3.10;;;3.10;99.90;;;;;;4957578;28;20191;-83
2021/01/14 09:03:35;;;;;;;5.97;3.05;;;3.20;99.90;;;;;;4959238;28;20708;-87
2021/01/14 09:06:03;;;;;;;8.52;3.70;;;3.30;99.90;;;;;;4965942;28;20192;-83
2021/01/14 09:08:33;;;;;;;13.43;3.83;;;3.10;99.90;;;;;;4960648;28;20247;-83
2021/01/14 09:11:02;;;;;;;4.90;3.05;;;3.20;99.90;;;;;;4970277;28;20184;-83
2021/01/14 09:13:32;;;;;;;8.05;4.47;;;3.50;99.90;;;;;;4966741;28;20203;-83
2021/01/14 09:16:11;;;;;;;6.43;3.40;;;3.40;99.90;;;;;;4957855;28;20204;-82
2021/01/14 09:18:42;;;;;;;6.70;2.40;;;3.50;99.90;;;;;;4956832;28;20247;-82
2021/01/14 09:21:11;;;;;;;6.20;3.60;;;3.30;99.90;;;;;;4968520;28;20195;-82
2021/01/14 09:23:38;;;;;;;6.50;3.80;;;3.30;99.90;;;;;;4960102;28;20213;-84
2021/01/14 09:26:09;;;;;;;5.47;3.65;;;3.30;99.90;;;;;;4970082;28;20235;-85
2021/01/14 09:28:35;;;;;;;7.40;3.40;;;3.30;99.90;;;;;;4968777;28;20202;-83
2021/01/14 09:31:07;;;;;;;4.57;3.50;;;3.40;99.90;;;;;;4955412;28;20199;-84
2021/01/14 09:33:39;;;;;;;7.55;3.97;;;3.20;99.90;;;;;;4972860;28;20624;-92
2021/01/14 09:36:14;;;;;;;6.88;4.20;;;3.30;99.90;;;;;;4976171;28;20283;-89
2021/01/14 09:38:48;;;;;;;6.38;3.60;;;3.20;99.90;;;;;;4966780;28;20230;-91
2021/01/14 09:41:23;;;;;;;12.25;4.07;;;3.20;99.90;;;;;;4961144;28;20194;-92
2021/01/14 09:44:06;;;;;;;5.57;4.60;;;3.20;99.90;;;;;;4973586;28;20322;-92
2021/01/14 09:46:35;;;;;;;5.70;4.60;;;3.40;99.90;;;;;;4974861;28;20221;-86
2021/01/14 09:49:06;;;;;;;5.88;4.80;;;3.20;99.90;;;;;;4982776;28;20227;-89
2021/01/14 09:51:51;;;;;;;9.50;6.45;;;2.80;99.90;;;;;;4960045;28;20200;-92
2021/01/14 09:54:20;;;;;;;14.93;7.30;;;3.30;99.90;;;;;;4964871;28;20194;-89
2021/01/14 09:56:52;;;;;;;8.98;6.60;;;2.80;99.90;;;;;;4957451;28;20198;-84
2021/01/14 09:59:42;;;;;;;11.35;6.95;;;3.50;99.90;;;;;;4966741;28;20270;-90
2021/01/14 10:02:20;;;;;;;13.10;8.93;;;3.50;99.90;;;;;;4973896;28;20184;-88
2021/01/14 10:05:01;;;;;;;14.07;8.57;;;3.50;99.90;;;;;;4969787;28;20214;-85
2021/01/14 10:07:33;;;;;;;10.52;9.43;;;3.30;99.90;;;;;;4972334;28;20249;-90
2021/01/14 10:09:59;;;;;;;17.63;9.82;;;3.40;99.90;;;;;;4958004;28;20211;-89
2021/01/14 10:12:32;;;;;;;14.60;10.23;;;3.40;99.90;;;;;;4969456;28;20195;-88
2021/01/14 10:15:10;;;;;;;14.60;11.05;;;3.40;99.90;;;;;;4973893;28;20215;-94
2021/01/14 10:17:38;;;;;;;13.70;12.05;;;3.50;99.90;;;;;;4981857;28;20191;-85
2021/01/14 10:20:06;;;;;;;15.07;11.23;;;3.70;99.90;;;;;;4956557;28;20270;-96
2021/01/14 10:22:34;;;;;;;16.45;11.70;;;3.60;99.90;;;;;;4988877;28;20199;-96
2021/01/14 10:25:08;;;;;;;18.52;12.80;;;3.50;99.90;;;;;;4974074;28;20226;-91
2021/01/14 10:27:41;;;;;;;16.50;12.60;;;3.60;99.90;;;;;;4980171;28;20229;-90
2021/01/14 10:30:21;;;;;;;15.77;12.18;;;3.70;99.90;;;;;;4970006;28;20203;-89
2021/01/14 10:32:49;;;;;;;13.95;11.32;;;3.60;99.90;;;;;;4961790;28;20193;-89
2021/01/14 10:35:29;;;;;;;14.65;11.73;;;3.30;99.90;;;;;;4985522;28;20188;-93
2021/01/14 10:38:16;;;;;;;15.00;10.40;;;3.40;99.90;;;;;;4961010;28;20267;-94
2021/01/14 10:40:51;;;;;;;12.57;10.18;;;3.50;99.90;;;;;;4964342;28;20184;-86
2021/01/14 10:43:31;;;;;;;12.77;9.98;;;3.60;99.90;;;;;;4963514;28;20191;-95
2021/01/14 10:45:57;;;;;;;11.95;10.18;;;3.50;99.90;;;;;;4962074;28;20188;-91
2021/01/14 10:48:25;;;;;;;21.55;10.43;;;3.30;99.90;;;;;;4985668;28;20278;-93
2021/01/14 10:50:55;;;;;;;12.73;10.13;;;3.60;99.90;;;;;;4972304;28;20187;-96
2021/01/14 10:53:41;;;;;;;11.20;10.10;;;3.30;99.90;;;;;;4984318;28;20645;-94
2021/01/14 10:56:09;;;;;;;10.13;9.07;;;4.00;99.90;;;;;;4957572;29;20175;-92
2021/01/14 10:58:36;;;;;;;8.60;7.80;;;3.80;99.90;;;;;;4976147;28;20223;-88
2021/01/14 11:01:23;;;;;;;8.82;6.65;;;3.90;99.90;;;;;;4979102;28;20195;-90
2021/01/14 11:03:52;;;;;;;10.10;7.25;;;3.90;99.90;;;;;;4946112;28;20283;-88
2021/01/14 11:06:35;;;;;;;8.38;6.47;;;4.00;99.90;;;;;;4979559;28;20203;-86
2021/01/14 11:09:08;;;;;;;6.63;6.03;;;4.00;99.90;;;;;;4958090;28;20204;-86
2021/01/14 11:11:35;;;;;;;7.53;5.63;;;4.00;99.90;;;;;;4982699;28;20218;-85
2021/01/14 11:14:03;;;;;;;7.20;5.75;;;3.90;99.90;;;;;;4956398;28;20188;-85
2021/01/14 11:16:29;;;;;;;7.45;6.15;;;3.90;99.90;;;;;;4963649;28;20282;-86
2021/01/14 11:18:59;;;;;;;6.28;5.70;;;3.90;99.90;;;;;;4955158;28;20188;-86
2021/01/14 11:21:28;;;;;;;5.30;4.82;;;3.70;99.90;;;;;;4966940;28;20236;-87
2021/01/14 11:23:55;;;;;;;8.07;5.10;;;3.90;99.90;;;;;;4971369;28;20199;-86
2021/01/14 11:26:24;;;;;;;6.18;5.57;;;4.10;99.90;;;;;;4975158;28;20239;-87
2021/01/14 11:28:51;;;;;;;6.32;5.82;;;4.10;99.90;;;;;;4973032;28;20763;-80
2021/01/14 11:31:22;;;;;;;5.85;5.35;;;4.10;99.90;;;;;;4972505;28;20281;-78
2021/01/14 11:33:48;;;;;;;6.07;5.53;;;3.90;99.90;;;;;;4947930;28;20230;-78
2021/01/14 11:36:17;;;;;;;7.13;6.43;;;4.30;99.90;;;;;;4955809;28;20179;-78
2021/01/14 11:38:43;;;;;;;8.07;5.30;;;4.20;99.90;;;;;;4968130;28;20199;-78
2021/01/14 11:41:10;;;;;;;5.23;4.83;;;4.40;99.90;;;;;;4953528;28;20205;-77
2021/01/14 11:43:36;;;;;;;8.52;6.30;;;4.40;99.90;;;;;;4955512;28;20489;-78
2021/01/14 11:46:08;;;;;;;13.90;5.70;;;4.40;99.90;;;;;;4948718;28;20199;-76
2021/01/14 11:48:37;;;;;;;5.82;5.38;;;4.50;99.90;;;;;;4958200;28;20657;-77
2021/01/14 12:08:38;;;;;;;7.05;5.07;;;4.70;99.90;;;;;;4993063;23;20266;-77
2021/01/14 12:11:04;;;;;;;9.32;5.60;;;4.90;99.90;;;;;;4936074;28;20579;-76
2021/01/14 12:13:33;;;;;;;8.70;5.82;;;4.70;99.90;;;;;;4937731;29;20204;-77
2021/01/14 12:16:01;;;;;;;7.05;5.85;;;4.80;99.90;;;;;;4946164;29;20188;-76
2021/01/14 12:18:35;;;;;;;5.63;5.07;;;4.90;99.90;;;;;;4946693;29;20717;-76
2021/01/14 12:21:04;;;;;;;6.20;5.70;;;4.70;99.90;;;;;;4938585;29;20189;-75
2021/01/14 12:23:32;;;;;;;6.40;5.80;;;4.80;99.90;;;;;;4917804;29;20220;-76
2021/01/14 12:26:00;;;;;;;5.93;5.30;;;4.80;99.90;;;;;;4944131;28;20651;-77
2021/01/14 12:28:26;;;;;;;6.50;5.90;;;4.90;99.90;;;;;;4918406;29;21012;-77
2021/01/14 12:30:52;;;;;;;6.93;5.90;;;4.90;99.90;;;;;;4934825;29;20192;-73
2021/01/14 12:33:18;;;;;;;6.03;5.53;;;4.90;99.90;;;;;;4943015;28;20199;-77
2021/01/14 12:35:47;;;;;;;7.47;5.55;;;4.90;99.90;;;;;;4934544;28;20183;-76
2021/01/14 12:38:13;;;;;;;6.47;5.20;;;4.90;99.90;;;;;;4943585;29;20563;-76
2021/01/14 12:40:40;;;;;;;6.90;6.40;;;5.00;99.90;;;;;;4939685;29;20546;-77
2021/01/14 12:43:08;;;;;;;5.50;4.97;;;4.60;99.90;;;;;;4938856;28;20279;-75
2021/01/14 12:45:34;;;;;;;5.45;5.15;;;4.80;99.90;;;;;;4929329;29;20934;-75
2021/01/14 12:48:02;;;;;;;6.50;5.50;;;4.90;99.90;;;;;;4938039;29;20274;-76
2021/01/14 12:50:28;;;;;;;6.85;5.10;;;4.90;99.90;;;;;;4930232;29;21114;-75
2021/01/14 12:52:58;;;;;;;7.05;6.00;;;4.90;99.90;;;;;;4914727;29;20196;-76
2021/01/14 12:55:24;;;;;;;5.80;5.20;;;5.00;99.90;;;;;;4930913;29;20188;-75
2021/01/14 12:57:55;;;;;;;12.90;6.47;;;5.00;99.90;;;;;;4932181;29;20215;-76
2021/01/14 13:00:21;;;;;;;6.15;5.45;;;5.00;99.90;;;;;;4943571;29;20246;-76
2021/01/14 13:02:52;;;;;;;5.97;5.47;;;4.90;99.90;;;;;;4953394;28;20219;-76
2021/01/14 13:05:20;;;;;;;7.28;5.70;;;4.90;99.90;;;;;;4918358;29;20195;-76
2021/01/14 13:07:47;;;;;;;6.40;5.85;;;4.90;99.90;;;;;;4932552;29;20736;-77
2021/01/14 13:10:13;;;;;;;12.95;7.10;;;4.90;99.90;;;;;;4940866;29;20235;-76
2021/01/14 13:12:39;;;;;;;7.20;5.60;;;5.00;99.90;;;;;;4935608;29;21006;-76
2021/01/14 13:15:08;;;;;;;5.72;5.20;;;5.00;99.90;;;;;;4944471;29;20340;-76
2021/01/14 13:17:34;;;;;;;6.45;6.03;;;5.00;99.90;;;;;;4936219;29;20256;-76
2021/01/14 13:20:01;;;;;;;6.32;5.45;;;5.00;99.90;;;;;;4938024;29;20215;-76
2021/01/14 13:22:27;;;;;;;5.82;5.30;;;4.90;99.90;;;;;;4947188;28;20680;-76
2021/01/14 13:24:53;;;;;;;7.78;5.25;;;5.00;99.90;;;;;;4937028;29;20223;-76
2021/01/14 13:27:19;;;;;;;6.00;5.50;;;5.00;99.90;;;;;;4921492;29;20633;-76
2021/01/14 13:29:45;;;;;;;6.88;5.80;;;5.00;99.90;;;;;;4918185;29;20475;-76